sensor_id;sensor_type;location;lat;lon;timestamp;temperature;humidity
8684;DHT22;4379;59.744;18.206;2023-04-15T00:01:26;-0.50;99.90
8684;DHT22;4379;59.744;18.206;2023-04-15T00:03:54;-0.60;99.90
8684;DHT22;4379;59.744;18.206;2023-04-15T00:06:23;-0.60;99.90
8684;DHT22;4379;59.744;18.206;2023-04-15T00:08:50;-0.60;99.90
8684;DHT22;4379;59.744;18.206;2023-04-15T00:11:17;-0.60;99.90
8684;DHT22;4379;59.744;18.206;2023-04-15T00:13:45;-0.60;99.90
8684;DHT22;4379;59.744;18.206;2023-04-15T00:16:13;-0.60;99.90
8684;DHT22;4379;59.744;18.206;2023-04-15T00:18:40;-0.70;99.90
8684;DHT22;4379;59.744;18.206;2023-04-15T00:21:08;-0.70;99.90
8684;DHT22;4379;59.744;18.206;2023-04-15T00:23:35;-0.70;99.90
8684;DHT22;4379;59.744;18.206;2023-04-15T00:26:02;-0.60;99.90
8684;DHT22;4379;59.744;18.206;2023-04-15T00:28:29;-0.70;99.90
8684;DHT22;4379;59.744;18.206;2023-04-15T00:30:57;-0.70;99.90
8684;DHT22;4379;59.744;18.206;2023-04-15T00:33:24;-0.70;99.90
8684;DHT22;4379;59.744;18.206;2023-04-15T00:35:51;-0.80;99.90
8684;DHT22;4379;59.744;18.206;2023-04-15T00:38:19;-0.80;99.90
8684;DHT22;4379;59.744;18.206;2023-04-15T00:40:46;-0.80;99.90
8684;DHT22;4379;59.744;18.206;2023-04-15T00:43:14;-0.70;99.90
8684;DHT22;4379;59.744;18.206;2023-04-15T00:45:42;-0.70;99.90
8684;DHT22;4379;59.744;18.206;2023-04-15T00:48:10;-0.60;99.90
8684;DHT22;4379;59.744;18.206;2023-04-15T00:50:37;-0.70;99.90
8684;DHT22;4379;59.744;18.206;2023-04-15T00:53:04;-0.70;99.90
8684;DHT22;4379;59.744;18.206;2023-04-15T00:55:32;-0.70;99.90
8684;DHT22;4379;59.744;18.206;2023-04-15T00:57:59;-0.70;99.90
8684;DHT22;4379;59.744;18.206;2023-04-15T01:00:26;-0.70;99.90
8684;DHT22;4379;59.744;18.206;2023-04-15T01:02:53;-0.80;99.90
8684;DHT22;4379;59.744;18.206;2023-04-15T01:05:20;-0.80;99.90
8684;DHT22;4379;59.744;18.206;2023-04-15T01:07:48;-0.70;99.90
8684;DHT22;4379;59.744;18.206;2023-04-15T01:10:15;-0.70;99.90
8684;DHT22;4379;59.744;18.206;2023-04-15T01:12:42;-0.80;99.90
8684;DHT22;4379;59.744;18.206;2023-04-15T01:15:10;-0.80;99.90
8684;DHT22;4379;59.744;18.206;2023-04-15T01:17:38;-0.80;99.90
8684;DHT22;4379;59.744;18.206;2023-04-15T01:20:06;-0.80;99.90
8684;DHT22;4379;59.744;18.206;2023-04-15T01:22:36;-0.90;99.90
8684;DHT22;4379;59.744;18.206;2023-04-15T01:25:10;-0.90;99.90
8684;DHT22;4379;59.744;18.206;2023-04-15T01:27:38;-1.00;99.90
8684;DHT22;4379;59.744;18.206;2023-04-15T01:30:08;-1.00;99.90
8684;DHT22;4379;59.744;18.206;2023-04-15T01:32:36;-1.00;99.90
8684;DHT22;4379;59.744;18.206;2023-04-15T01:35:04;-1.00;99.90
8684;DHT22;4379;59.744;18.206;2023-04-15T01:37:32;-1.00;99.90
8684;DHT22;4379;59.744;18.206;2023-04-15T01:39:59;-0.90;99.90
8684;DHT22;4379;59.744;18.206;2023-04-15T01:42:26;-0.90;99.90
8684;DHT22;4379;59.744;18.206;2023-04-15T01:44:54;-1.00;99.90
8684;DHT22;4379;59.744;18.206;2023-04-15T01:47:21;-1.00;99.90
8684;DHT22;4379;59.744;18.206;2023-04-15T01:49:49;-0.80;99.90
8684;DHT22;4379;59.744;18.206;2023-04-15T01:52:16;-0.80;99.90
8684;DHT22;4379;59.744;18.206;2023-04-15T01:54:43;-0.80;99.90
8684;DHT22;4379;59.744;18.206;2023-04-15T01:57:10;-0.90;99.90
8684;DHT22;4379;59.744;18.206;2023-04-15T01:59:37;-0.90;99.90
8684;DHT22;4379;59.744;18.206;2023-04-15T02:02:04;-1.00;99.90
8684;DHT22;4379;59.744;18.206;2023-04-15T02:04:32;-1.00;99.90
8684;DHT22;4379;59.744;18.206;2023-04-15T02:07:00;-1.00;99.90
8684;DHT22;4379;59.744;18.206;2023-04-15T02:09:27;-1.10;99.90
8684;DHT22;4379;59.744;18.206;2023-04-15T02:11:55;-1.10;99.90
8684;DHT22;4379;59.744;18.206;2023-04-15T02:14:22;-1.10;99.90
8684;DHT22;4379;59.744;18.206;2023-04-15T02:16:50;-1.20;99.90
8684;DHT22;4379;59.744;18.206;2023-04-15T02:19:18;-1.10;99.90
8684;DHT22;4379;59.744;18.206;2023-04-15T02:21:45;-1.20;99.90
8684;DHT22;4379;59.744;18.206;2023-04-15T02:24:12;-1.20;99.90
8684;DHT22;4379;59.744;18.206;2023-04-15T02:26:39;-1.20;99.90
8684;DHT22;4379;59.744;18.206;2023-04-15T02:29:06;-1.20;99.90
8684;DHT22;4379;59.744;18.206;2023-04-15T02:31:33;-1.30;99.90
8684;DHT22;4379;59.744;18.206;2023-04-15T02:34:04;-1.30;99.90
8684;DHT22;4379;59.744;18.206;2023-04-15T02:36:31;-1.20;99.90
8684;DHT22;4379;59.744;18.206;2023-04-15T02:38:59;-1.20;99.90
8684;DHT22;4379;59.744;18.206;2023-04-15T02:41:28;-1.20;99.90
8684;DHT22;4379;59.744;18.206;2023-04-15T02:43:55;-1.20;99.90
8684;DHT22;4379;59.744;18.206;2023-04-15T02:46:23;-1.20;99.90
8684;DHT22;4379;59.744;18.206;2023-04-15T02:48:50;-1.20;99.90
8684;DHT22;4379;59.744;18.206;2023-04-15T02:51:20;-1.10;99.90
8684;DHT22;4379;59.744;18.206;2023-04-15T02:53:49;-1.10;99.90
8684;DHT22;4379;59.744;18.206;2023-04-15T02:56:16;-1.20;99.90
8684;DHT22;4379;59.744;18.206;2023-04-15T02:58:45;-1.20;99.90
8684;DHT22;4379;59.744;18.206;2023-04-15T03:01:12;-1.20;99.90
8684;DHT22;4379;59.744;18.206;2023-04-15T03:03:40;-1.20;99.90
8684;DHT22;4379;59.744;18.206;2023-04-15T03:06:10;-1.20;99.90
8684;DHT22;4379;59.744;18.206;2023-04-15T03:08:37;-1.20;99.90
8684;DHT22;4379;59.744;18.206;2023-04-15T03:11:07;-1.20;99.90
8684;DHT22;4379;59.744;18.206;2023-04-15T03:13:34;-1.20;99.90
8684;DHT22;4379;59.744;18.206;2023-04-15T03:16:02;-1.10;99.90
8684;DHT22;4379;59.744;18.206;2023-04-15T03:18:29;-1.10;99.90
8684;DHT22;4379;59.744;18.206;2023-04-15T03:20:56;-1.10;99.90
8684;DHT22;4379;59.744;18.206;2023-04-15T03:23:24;-1.10;99.90
8684;DHT22;4379;59.744;18.206;2023-04-15T03:25:52;-1.00;99.90
8684;DHT22;4379;59.744;18.206;2023-04-15T03:28:21;-1.00;99.90
8684;DHT22;4379;59.744;18.206;2023-04-15T03:30:49;-0.90;99.90
8684;DHT22;4379;59.744;18.206;2023-04-15T03:33:16;-0.90;99.90
8684;DHT22;4379;59.744;18.206;2023-04-15T03:35:43;-0.90;99.90
8684;DHT22;4379;59.744;18.206;2023-04-15T03:38:10;-0.80;99.90
8684;DHT22;4379;59.744;18.206;2023-04-15T03:40:40;-0.70;99.90
8684;DHT22;4379;59.744;18.206;2023-04-15T03:43:08;-0.60;99.90
8684;DHT22;4379;59.744;18.206;2023-04-15T03:45:35;-0.60;99.90
8684;DHT22;4379;59.744;18.206;2023-04-15T03:48:02;-0.50;99.90
8684;DHT22;4379;59.744;18.206;2023-04-15T03:50:43;-0.40;99.90
8684;DHT22;4379;59.744;18.206;2023-04-15T03:53:10;-0.30;99.90
8684;DHT22;4379;59.744;18.206;2023-04-15T03:55:37;-0.20;99.90
8684;DHT22;4379;59.744;18.206;2023-04-15T03:58:04;-0.10;99.90
8684;DHT22;4379;59.744;18.206;2023-04-15T04:00:32;0.00;99.90
8684;DHT22;4379;59.744;18.206;2023-04-15T04:02:59;0.10;99.90
8684;DHT22;4379;59.744;18.206;2023-04-15T04:05:26;0.20;99.90
8684;DHT22;4379;59.744;18.206;2023-04-15T04:07:53;0.30;99.90
8684;DHT22;4379;59.744;18.206;2023-04-15T04:10:23;0.40;99.90
8684;DHT22;4379;59.744;18.206;2023-04-15T04:12:50;0.40;99.90
8684;DHT22;4379;59.744;18.206;2023-04-15T04:15:18;0.50;99.90
8684;DHT22;4379;59.744;18.206;2023-04-15T04:17:45;0.70;99.90
8684;DHT22;4379;59.744;18.206;2023-04-15T04:20:12;0.80;99.90
8684;DHT22;4379;59.744;18.206;2023-04-15T04:22:39;1.00;99.90
8684;DHT22;4379;59.744;18.206;2023-04-15T04:25:08;1.10;99.90
8684;DHT22;4379;59.744;18.206;2023-04-15T04:27:36;1.20;99.90
8684;DHT22;4379;59.744;18.206;2023-04-15T04:30:04;1.40;99.90
8684;DHT22;4379;59.744;18.206;2023-04-15T04:32:32;1.40;99.90
8684;DHT22;4379;59.744;18.206;2023-04-15T04:35:00;1.50;99.90
8684;DHT22;4379;59.744;18.206;2023-04-15T04:37:27;1.50;99.90
8684;DHT22;4379;59.744;18.206;2023-04-15T04:39:54;1.50;99.90
8684;DHT22;4379;59.744;18.206;2023-04-15T04:42:21;1.50;99.90
8684;DHT22;4379;59.744;18.206;2023-04-15T04:44:48;1.50;99.90
8684;DHT22;4379;59.744;18.206;2023-04-15T04:47:15;1.50;99.90
8684;DHT22;4379;59.744;18.206;2023-04-15T04:49:43;1.50;99.90
8684;DHT22;4379;59.744;18.206;2023-04-15T04:52:10;1.50;99.90
8684;DHT22;4379;59.744;18.206;2023-04-15T04:54:37;1.50;99.90
8684;DHT22;4379;59.744;18.206;2023-04-15T04:57:04;1.50;99.90
8684;DHT22;4379;59.744;18.206;2023-04-15T04:59:34;1.50;99.90
8684;DHT22;4379;59.744;18.206;2023-04-15T05:02:01;1.90;99.90
8684;DHT22;4379;59.744;18.206;2023-04-15T05:04:29;1.80;99.90
8684;DHT22;4379;59.744;18.206;2023-04-15T05:06:57;1.80;99.90
8684;DHT22;4379;59.744;18.206;2023-04-15T05:09:25;1.90;99.90
8684;DHT22;4379;59.744;18.206;2023-04-15T05:11:52;2.20;99.90
8684;DHT22;4379;59.744;18.206;2023-04-15T05:14:20;3.00;99.90
8684;DHT22;4379;59.744;18.206;2023-04-15T05:16:49;4.30;99.90
8684;DHT22;4379;59.744;18.206;2023-04-15T05:19:16;6.10;99.90
8684;DHT22;4379;59.744;18.206;2023-04-15T05:21:43;7.30;99.90
8684;DHT22;4379;59.744;18.206;2023-04-15T05:24:11;7.70;99.90
8684;DHT22;4379;59.744;18.206;2023-04-15T05:26:38;8.30;99.90
8684;DHT22;4379;59.744;18.206;2023-04-15T05:29:05;8.00;99.90
8684;DHT22;4379;59.744;18.206;2023-04-15T05:31:33;7.10;99.90
8684;DHT22;4379;59.744;18.206;2023-04-15T05:34:00;6.80;99.90
8684;DHT22;4379;59.744;18.206;2023-04-15T05:36:28;6.50;99.90
8684;DHT22;4379;59.744;18.206;2023-04-15T05:38:55;5.30;99.90
8684;DHT22;4379;59.744;18.206;2023-04-15T05:41:22;5.20;99.90
8684;DHT22;4379;59.744;18.206;2023-04-15T05:43:49;5.20;99.90
8684;DHT22;4379;59.744;18.206;2023-04-15T05:46:16;4.80;99.90
8684;DHT22;4379;59.744;18.206;2023-04-15T05:48:43;5.10;99.90
8684;DHT22;4379;59.744;18.206;2023-04-15T05:51:11;5.90;99.90
8684;DHT22;4379;59.744;18.206;2023-04-15T05:53:38;6.70;99.90
8684;DHT22;4379;59.744;18.206;2023-04-15T05:56:07;8.40;99.90
8684;DHT22;4379;59.744;18.206;2023-04-15T05:58:34;10.40;99.90
8684;DHT22;4379;59.744;18.206;2023-04-15T06:01:02;12.50;99.90
8684;DHT22;4379;59.744;18.206;2023-04-15T06:03:29;13.80;99.90
8684;DHT22;4379;59.744;18.206;2023-04-15T06:05:57;13.60;99.90
8684;DHT22;4379;59.744;18.206;2023-04-15T06:08:24;13.90;99.90
8684;DHT22;4379;59.744;18.206;2023-04-15T06:10:51;15.70;99.90
8684;DHT22;4379;59.744;18.206;2023-04-15T06:13:18;16.40;99.90
8684;DHT22;4379;59.744;18.206;2023-04-15T06:15:45;15.30;99.90
8684;DHT22;4379;59.744;18.206;2023-04-15T06:18:13;17.60;99.90
8684;DHT22;4379;59.744;18.206;2023-04-15T06:20:40;17.30;99.90
8684;DHT22;4379;59.744;18.206;2023-04-15T06:23:07;17.00;99.90
8684;DHT22;4379;59.744;18.206;2023-04-15T06:25:34;16.60;99.90
8684;DHT22;4379;59.744;18.206;2023-04-15T06:28:01;15.30;99.90
8684;DHT22;4379;59.744;18.206;2023-04-15T06:30:29;15.20;99.90
8684;DHT22;4379;59.744;18.206;2023-04-15T06:32:56;16.80;99.90
8684;DHT22;4379;59.744;18.206;2023-04-15T06:35:23;16.80;99.90
8684;DHT22;4379;59.744;18.206;2023-04-15T06:37:51;14.90;99.90
8684;DHT22;4379;59.744;18.206;2023-04-15T06:40:18;12.60;99.90
8684;DHT22;4379;59.744;18.206;2023-04-15T06:42:45;11.30;99.90
8684;DHT22;4379;59.744;18.206;2023-04-15T06:45:12;11.50;99.90
8684;DHT22;4379;59.744;18.206;2023-04-15T06:47:40;12.40;99.90
8684;DHT22;4379;59.744;18.206;2023-04-15T06:50:08;14.40;99.90
8684;DHT22;4379;59.744;18.206;2023-04-15T06:52:35;13.90;99.90
8684;DHT22;4379;59.744;18.206;2023-04-15T06:55:03;11.90;99.90
8684;DHT22;4379;59.744;18.206;2023-04-15T06:57:31;13.30;99.90
8684;DHT22;4379;59.744;18.206;2023-04-15T07:00:01;13.00;99.90
8684;DHT22;4379;59.744;18.206;2023-04-15T07:02:30;12.80;99.90
8684;DHT22;4379;59.744;18.206;2023-04-15T07:04:58;11.70;99.90
8684;DHT22;4379;59.744;18.206;2023-04-15T07:07:25;11.80;99.90
8684;DHT22;4379;59.744;18.206;2023-04-15T07:09:52;13.20;99.90
8684;DHT22;4379;59.744;18.206;2023-04-15T07:12:19;15.80;99.90
8684;DHT22;4379;59.744;18.206;2023-04-15T07:14:47;17.30;99.90
8684;DHT22;4379;59.744;18.206;2023-04-15T07:17:15;17.70;99.90
8684;DHT22;4379;59.744;18.206;2023-04-15T07:19:42;14.00;99.90
8684;DHT22;4379;59.744;18.206;2023-04-15T07:22:09;15.40;99.90
8684;DHT22;4379;59.744;18.206;2023-04-15T07:24:37;15.50;99.90
8684;DHT22;4379;59.744;18.206;2023-04-15T07:27:05;14.80;99.90
8684;DHT22;4379;59.744;18.206;2023-04-15T07:29:32;14.90;99.90
8684;DHT22;4379;59.744;18.206;2023-04-15T07:31:59;16.00;99.90
8684;DHT22;4379;59.744;18.206;2023-04-15T07:34:26;16.20;99.90
8684;DHT22;4379;59.744;18.206;2023-04-15T07:36:57;17.80;99.90
8684;DHT22;4379;59.744;18.206;2023-04-15T07:39:24;18.50;99.90
8684;DHT22;4379;59.744;18.206;2023-04-15T07:41:51;19.30;99.90
8684;DHT22;4379;59.744;18.206;2023-04-15T07:44:21;20.90;99.90
8684;DHT22;4379;59.744;18.206;2023-04-15T07:46:48;20.70;99.90
8684;DHT22;4379;59.744;18.206;2023-04-15T07:49:15;20.20;99.90
8684;DHT22;4379;59.744;18.206;2023-04-15T07:51:45;20.80;99.90
8684;DHT22;4379;59.744;18.206;2023-04-15T07:54:12;22.20;99.90
8684;DHT22;4379;59.744;18.206;2023-04-15T07:56:40;23.10;99.90
8684;DHT22;4379;59.744;18.206;2023-04-15T07:59:08;24.50;99.90
8684;DHT22;4379;59.744;18.206;2023-04-15T08:01:36;23.60;99.90
8684;DHT22;4379;59.744;18.206;2023-04-15T08:04:03;22.70;99.90
8684;DHT22;4379;59.744;18.206;2023-04-15T08:06:31;22.20;99.90
8684;DHT22;4379;59.744;18.206;2023-04-15T08:08:59;20.30;99.90
8684;DHT22;4379;59.744;18.206;2023-04-15T08:11:27;20.30;99.90
8684;DHT22;4379;59.744;18.206;2023-04-15T08:13:54;22.90;99.90
8684;DHT22;4379;59.744;18.206;2023-04-15T08:16:23;24.00;99.90
8684;DHT22;4379;59.744;18.206;2023-04-15T08:18:54;22.90;99.00
8684;DHT22;4379;59.744;18.206;2023-04-15T08:21:21;21.10;99.90
8684;DHT22;4379;59.744;18.206;2023-04-15T08:23:51;19.30;99.90
8684;DHT22;4379;59.744;18.206;2023-04-15T08:26:19;18.20;99.90
8684;DHT22;4379;59.744;18.206;2023-04-15T08:28:47;16.70;99.90
8684;DHT22;4379;59.744;18.206;2023-04-15T08:31:16;15.00;99.90
8684;DHT22;4379;59.744;18.206;2023-04-15T08:33:43;12.20;99.90
8684;DHT22;4379;59.744;18.206;2023-04-15T08:36:11;11.70;99.90
8684;DHT22;4379;59.744;18.206;2023-04-15T08:38:39;12.40;99.90
8684;DHT22;4379;59.744;18.206;2023-04-15T08:41:23;13.40;99.90
8684;DHT22;4379;59.744;18.206;2023-04-15T08:44:01;12.30;99.90
8684;DHT22;4379;59.744;18.206;2023-04-15T08:46:32;14.70;99.90
8684;DHT22;4379;59.744;18.206;2023-04-15T08:49:03;17.00;99.90
8684;DHT22;4379;59.744;18.206;2023-04-15T08:51:33;18.40;99.90
8684;DHT22;4379;59.744;18.206;2023-04-15T08:54:01;19.80;99.90
8684;DHT22;4379;59.744;18.206;2023-04-15T08:56:30;19.20;99.90
8684;DHT22;4379;59.744;18.206;2023-04-15T08:59:01;18.10;99.90
8684;DHT22;4379;59.744;18.206;2023-04-15T09:01:31;17.50;99.90
8684;DHT22;4379;59.744;18.206;2023-04-15T09:03:58;16.50;99.90
8684;DHT22;4379;59.744;18.206;2023-04-15T09:06:26;15.60;99.90
8684;DHT22;4379;59.744;18.206;2023-04-15T09:08:53;16.10;99.90
8684;DHT22;4379;59.744;18.206;2023-04-15T09:11:21;16.10;99.90
8684;DHT22;4379;59.744;18.206;2023-04-15T09:13:49;14.20;99.90
8684;DHT22;4379;59.744;18.206;2023-04-15T09:16:16;14.70;99.90
8684;DHT22;4379;59.744;18.206;2023-04-15T09:18:44;14.90;99.90
8684;DHT22;4379;59.744;18.206;2023-04-15T09:21:15;14.70;99.90
8684;DHT22;4379;59.744;18.206;2023-04-15T09:24:00;13.50;99.90
8684;DHT22;4379;59.744;18.206;2023-04-15T09:26:37;12.70;99.90
8684;DHT22;4379;59.744;18.206;2023-04-15T09:29:10;12.80;99.90
8684;DHT22;4379;59.744;18.206;2023-04-15T09:31:40;13.10;99.90
8684;DHT22;4379;59.744;18.206;2023-04-15T09:34:08;13.10;99.90
8684;DHT22;4379;59.744;18.206;2023-04-15T09:36:52;13.50;99.90
8684;DHT22;4379;59.744;18.206;2023-04-15T09:39:20;13.20;99.90
8684;DHT22;4379;59.744;18.206;2023-04-15T09:42:06;13.00;99.90
8684;DHT22;4379;59.744;18.206;2023-04-15T09:44:34;12.30;99.90
8684;DHT22;4379;59.744;18.206;2023-04-15T09:47:01;12.50;99.90
8684;DHT22;4379;59.744;18.206;2023-04-15T09:49:29;12.40;99.90
8684;DHT22;4379;59.744;18.206;2023-04-15T09:52:03;12.00;99.90
8684;DHT22;4379;59.744;18.206;2023-04-15T09:54:34;12.50;99.90
8684;DHT22;4379;59.744;18.206;2023-04-15T09:57:07;12.70;99.90
8684;DHT22;4379;59.744;18.206;2023-04-15T09:59:35;13.00;99.90
8684;DHT22;4379;59.744;18.206;2023-04-15T10:02:05;13.00;99.90
8684;DHT22;4379;59.744;18.206;2023-04-15T10:04:39;12.40;99.90
8684;DHT22;4379;59.744;18.206;2023-04-15T10:07:08;12.60;99.90
8684;DHT22;4379;59.744;18.206;2023-04-15T10:09:37;12.00;99.90
8684;DHT22;4379;59.744;18.206;2023-04-15T10:12:04;12.30;99.90
8684;DHT22;4379;59.744;18.206;2023-04-15T10:14:35;11.60;99.90
8684;DHT22;4379;59.744;18.206;2023-04-15T10:17:05;11.90;99.90
8684;DHT22;4379;59.744;18.206;2023-04-15T10:19:36;12.50;99.90
8684;DHT22;4379;59.744;18.206;2023-04-15T10:22:04;12.50;99.90
8684;DHT22;4379;59.744;18.206;2023-04-15T10:24:32;12.10;99.90
8684;DHT22;4379;59.744;18.206;2023-04-15T10:27:00;12.10;99.90
8684;DHT22;4379;59.744;18.206;2023-04-15T10:29:29;11.80;99.90
8684;DHT22;4379;59.744;18.206;2023-04-15T10:31:58;11.40;99.90
8684;DHT22;4379;59.744;18.206;2023-04-15T10:34:26;11.50;99.90
8684;DHT22;4379;59.744;18.206;2023-04-15T10:37:03;11.30;99.90
8684;DHT22;4379;59.744;18.206;2023-04-15T10:42:12;11.70;99.90
8684;DHT22;4379;59.744;18.206;2023-04-15T10:44:50;11.40;99.90
8684;DHT22;4379;59.744;18.206;2023-04-15T10:47:19;11.70;99.90
8684;DHT22;4379;59.744;18.206;2023-04-15T10:49:58;11.70;99.90
8684;DHT22;4379;59.744;18.206;2023-04-15T10:52:27;11.80;99.90
8684;DHT22;4379;59.744;18.206;2023-04-15T10:57:38;12.50;99.90
8684;DHT22;4379;59.744;18.206;2023-04-15T11:00:12;12.20;99.90
8684;DHT22;4379;59.744;18.206;2023-04-15T11:08:12;12.20;99.90
8684;DHT22;4379;59.744;18.206;2023-04-15T11:13:17;11.90;99.90
8684;DHT22;4379;59.744;18.206;2023-04-15T11:15:48;12.10;99.90
8684;DHT22;4379;59.744;18.206;2023-04-15T11:18:24;12.30;99.90
8684;DHT22;4379;59.744;18.206;2023-04-15T11:20:53;12.50;99.90
8684;DHT22;4379;59.744;18.206;2023-04-15T11:23:28;12.20;99.90
8684;DHT22;4379;59.744;18.206;2023-04-15T11:25:57;12.10;99.90
8684;DHT22;4379;59.744;18.206;2023-04-15T11:28:26;11.90;99.90
8684;DHT22;4379;59.744;18.206;2023-04-15T11:30:54;12.30;99.90
8684;DHT22;4379;59.744;18.206;2023-04-15T11:33:23;12.30;99.90
8684;DHT22;4379;59.744;18.206;2023-04-15T11:35:54;11.70;99.90
8684;DHT22;4379;59.744;18.206;2023-04-15T11:38:21;11.70;99.90
8684;DHT22;4379;59.744;18.206;2023-04-15T11:40:50;11.40;99.90
8684;DHT22;4379;59.744;18.206;2023-04-15T11:43:20;11.00;99.90
8684;DHT22;4379;59.744;18.206;2023-04-15T11:48:23;11.20;99.90
8684;DHT22;4379;59.744;18.206;2023-04-15T11:51:02;11.30;99.90
8684;DHT22;4379;59.744;18.206;2023-04-15T11:56:04;11.50;99.90
8684;DHT22;4379;59.744;18.206;2023-04-15T11:58:34;11.20;99.90
8684;DHT22;4379;59.744;18.206;2023-04-15T12:01:02;11.10;99.90
8684;DHT22;4379;59.744;18.206;2023-04-15T12:03:38;11.20;99.90
8684;DHT22;4379;59.744;18.206;2023-04-15T12:06:12;11.20;99.90
8684;DHT22;4379;59.744;18.206;2023-04-15T12:13:57;11.20;99.90
8684;DHT22;4379;59.744;18.206;2023-04-15T12:16:26;11.20;99.90
8684;DHT22;4379;59.744;18.206;2023-04-15T12:18:55;11.40;99.90
8684;DHT22;4379;59.744;18.206;2023-04-15T12:21:24;11.30;99.90
8684;DHT22;4379;59.744;18.206;2023-04-15T12:23:56;11.00;99.90
8684;DHT22;4379;59.744;18.206;2023-04-15T12:26:51;11.20;99.90
8684;DHT22;4379;59.744;18.206;2023-04-15T12:29:16;11.10;99.90
8684;DHT22;4379;59.744;18.206;2023-04-15T12:31:56;10.90;99.90
8684;DHT22;4379;59.744;18.206;2023-04-15T12:34:32;10.80;99.90
8684;DHT22;4379;59.744;18.206;2023-04-15T12:37:00;10.90;99.90
8684;DHT22;4379;59.744;18.206;2023-04-15T12:39:34;10.80;99.90
8684;DHT22;4379;59.744;18.206;2023-04-15T12:42:03;10.80;99.90
8684;DHT22;4379;59.744;18.206;2023-04-15T12:44:31;10.70;99.90
8684;DHT22;4379;59.744;18.206;2023-04-15T12:46:59;10.80;99.90
8684;DHT22;4379;59.744;18.206;2023-04-15T12:49:27;10.90;99.90
8684;DHT22;4379;59.744;18.206;2023-04-15T12:51:56;10.80;99.90
8684;DHT22;4379;59.744;18.206;2023-04-15T12:54:23;10.30;99.90
8684;DHT22;4379;59.744;18.206;2023-04-15T12:56:51;9.90;99.90
8684;DHT22;4379;59.744;18.206;2023-04-15T12:59:18;10.10;99.90
8684;DHT22;4379;59.744;18.206;2023-04-15T13:01:47;10.20;99.90
8684;DHT22;4379;59.744;18.206;2023-04-15T13:04:15;10.30;99.90
8684;DHT22;4379;59.744;18.206;2023-04-15T13:06:43;10.30;99.90
8684;DHT22;4379;59.744;18.206;2023-04-15T13:09:10;10.30;99.90
8684;DHT22;4379;59.744;18.206;2023-04-15T13:11:37;10.40;99.90
8684;DHT22;4379;59.744;18.206;2023-04-15T13:14:07;10.30;99.90
8684;DHT22;4379;59.744;18.206;2023-04-15T13:16:34;10.50;99.90
8684;DHT22;4379;59.744;18.206;2023-04-15T13:19:02;10.60;99.90
8684;DHT22;4379;59.744;18.206;2023-04-15T13:21:30;10.50;99.90
8684;DHT22;4379;59.744;18.206;2023-04-15T13:24:02;10.60;99.90
8684;DHT22;4379;59.744;18.206;2023-04-15T13:26:30;10.90;99.90
8684;DHT22;4379;59.744;18.206;2023-04-15T13:28:58;10.70;99.90
8684;DHT22;4379;59.744;18.206;2023-04-15T13:31:26;10.70;99.90
8684;DHT22;4379;59.744;18.206;2023-04-15T13:33:55;10.90;99.90
8684;DHT22;4379;59.744;18.206;2023-04-15T13:36:23;10.60;99.90
8684;DHT22;4379;59.744;18.206;2023-04-15T13:38:50;10.30;99.90
8684;DHT22;4379;59.744;18.206;2023-04-15T13:41:18;10.60;99.90
8684;DHT22;4379;59.744;18.206;2023-04-15T13:43:47;10.10;99.90
8684;DHT22;4379;59.744;18.206;2023-04-15T13:46:14;9.90;99.90
8684;DHT22;4379;59.744;18.206;2023-04-15T13:48:42;9.80;99.90
8684;DHT22;4379;59.744;18.206;2023-04-15T13:51:11;10.00;99.90
8684;DHT22;4379;59.744;18.206;2023-04-15T13:53:39;10.00;99.90
8684;DHT22;4379;59.744;18.206;2023-04-15T13:56:08;10.00;99.90
8684;DHT22;4379;59.744;18.206;2023-04-15T13:58:36;10.00;99.90
8684;DHT22;4379;59.744;18.206;2023-04-15T14:01:05;9.70;99.90
8684;DHT22;4379;59.744;18.206;2023-04-15T14:03:34;9.70;99.90
8684;DHT22;4379;59.744;18.206;2023-04-15T14:06:04;9.80;99.90
8684;DHT22;4379;59.744;18.206;2023-04-15T14:08:32;9.90;99.90
8684;DHT22;4379;59.744;18.206;2023-04-15T14:11:00;9.90;99.90
8684;DHT22;4379;59.744;18.206;2023-04-15T14:13:27;9.30;99.90
8684;DHT22;4379;59.744;18.206;2023-04-15T14:15:56;9.10;99.90
8684;DHT22;4379;59.744;18.206;2023-04-15T14:18:26;9.00;99.90
8684;DHT22;4379;59.744;18.206;2023-04-15T14:20:53;9.30;99.90
8684;DHT22;4379;59.744;18.206;2023-04-15T14:23:24;9.40;99.90
8684;DHT22;4379;59.744;18.206;2023-04-15T14:25:52;9.30;99.90
8684;DHT22;4379;59.744;18.206;2023-04-15T14:28:19;9.10;99.90
8684;DHT22;4379;59.744;18.206;2023-04-15T14:30:46;8.90;99.90
8684;DHT22;4379;59.744;18.206;2023-04-15T14:33:14;9.00;99.90
8684;DHT22;4379;59.744;18.206;2023-04-15T14:35:41;8.90;99.90
8684;DHT22;4379;59.744;18.206;2023-04-15T14:38:08;8.70;99.90
8684;DHT22;4379;59.744;18.206;2023-04-15T14:40:37;8.70;99.90
8684;DHT22;4379;59.744;18.206;2023-04-15T14:43:04;8.90;99.90
8684;DHT22;4379;59.744;18.206;2023-04-15T14:45:32;8.80;99.90
8684;DHT22;4379;59.744;18.206;2023-04-15T14:47:59;8.60;99.90
8684;DHT22;4379;59.744;18.206;2023-04-15T14:50:27;8.70;99.90
8684;DHT22;4379;59.744;18.206;2023-04-15T14:52:54;8.80;99.90
8684;DHT22;4379;59.744;18.206;2023-04-15T14:55:21;9.00;99.90
8684;DHT22;4379;59.744;18.206;2023-04-15T14:57:48;9.00;99.90
8684;DHT22;4379;59.744;18.206;2023-04-15T15:00:16;9.10;99.90
8684;DHT22;4379;59.744;18.206;2023-04-15T15:02:43;9.00;99.90
8684;DHT22;4379;59.744;18.206;2023-04-15T15:05:10;9.20;99.90
8684;DHT22;4379;59.744;18.206;2023-04-15T15:07:38;9.30;99.90
8684;DHT22;4379;59.744;18.206;2023-04-15T15:10:07;9.10;99.90
8684;DHT22;4379;59.744;18.206;2023-04-15T15:12:35;9.20;99.90
8684;DHT22;4379;59.744;18.206;2023-04-15T15:15:03;9.20;99.90
8684;DHT22;4379;59.744;18.206;2023-04-15T15:17:41;9.30;99.90
8684;DHT22;4379;59.744;18.206;2023-04-15T15:20:09;9.20;99.90
8684;DHT22;4379;59.744;18.206;2023-04-15T15:22:36;9.30;99.90
8684;DHT22;4379;59.744;18.206;2023-04-15T15:25:04;9.40;99.90
8684;DHT22;4379;59.744;18.206;2023-04-15T15:27:31;9.30;99.90
8684;DHT22;4379;59.744;18.206;2023-04-15T15:29:58;9.10;99.90
8684;DHT22;4379;59.744;18.206;2023-04-15T15:32:26;9.00;99.90
8684;DHT22;4379;59.744;18.206;2023-04-15T15:34:53;9.00;99.90
8684;DHT22;4379;59.744;18.206;2023-04-15T15:37:20;8.70;99.90
8684;DHT22;4379;59.744;18.206;2023-04-15T15:39:47;8.70;99.90
8684;DHT22;4379;59.744;18.206;2023-04-15T15:42:18;8.60;99.90
8684;DHT22;4379;59.744;18.206;2023-04-15T15:44:45;8.60;99.90
8684;DHT22;4379;59.744;18.206;2023-04-15T15:47:12;8.70;99.90
8684;DHT22;4379;59.744;18.206;2023-04-15T15:49:39;8.60;99.90
8684;DHT22;4379;59.744;18.206;2023-04-15T15:52:07;8.60;99.90
8684;DHT22;4379;59.744;18.206;2023-04-15T15:54:34;8.60;99.90
8684;DHT22;4379;59.744;18.206;2023-04-15T15:57:03;8.50;99.90
8684;DHT22;4379;59.744;18.206;2023-04-15T15:59:31;8.50;99.90
8684;DHT22;4379;59.744;18.206;2023-04-15T16:01:59;8.50;99.90
8684;DHT22;4379;59.744;18.206;2023-04-15T16:04:28;8.40;99.90
8684;DHT22;4379;59.744;18.206;2023-04-15T16:06:56;8.40;99.90
8684;DHT22;4379;59.744;18.206;2023-04-15T16:09:23;8.50;99.90
8684;DHT22;4379;59.744;18.206;2023-04-15T16:11:50;8.30;99.90
8684;DHT22;4379;59.744;18.206;2023-04-15T16:14:17;8.30;99.90
8684;DHT22;4379;59.744;18.206;2023-04-15T16:16:44;8.30;99.90
8684;DHT22;4379;59.744;18.206;2023-04-15T16:19:12;8.30;99.90
8684;DHT22;4379;59.744;18.206;2023-04-15T16:21:39;8.10;99.90